Terminal Aerodrome Forecast
Issued by NWS

Home | Current Version | Previous Version | Text Only | Print | Product List | Glossary On
Versions: 1 2 3 4 5 6 7 8 9 10 11 12 13 14 15 16
000
FTUS46 KMTR 251100
TAFSTS
TAF
KSTS 251122Z 2512/2612 16014G20KT 5SM -RA BKN015 OVC030
     FM251700 18014G21KT P6SM -RA OVC015
     FM252000 18014KT P6SM -SHRA BKN040 PROB30 2521/2524 -TSRA
      BKN025CB
     FM260300 18005KT P6SM BKN050
     FM260900 00000KT 1/2SM FG BKN001=

USA.gov is the U.S. government's official web portal to all federal, state and local government web resources and services.